sensor_id;sensor_type;location;lat;lon;timestamp;temperature;humidity
5743;DHT22;2896;53.500;10.020;2022-12-24T00:01:31;5.20;99.90
5743;DHT22;2896;53.500;10.020;2022-12-24T00:03:58;5.00;99.90
5743;DHT22;2896;53.500;10.020;2022-12-24T00:06:25;5.20;99.90
5743;DHT22;2896;53.500;10.020;2022-12-24T00:08:51;5.10;99.90
5743;DHT22;2896;53.500;10.020;2022-12-24T00:11:18;5.10;99.90
5743;DHT22;2896;53.500;10.020;2022-12-24T00:13:45;5.10;99.90
5743;DHT22;2896;53.500;10.020;2022-12-24T00:16:12;5.10;99.90
5743;DHT22;2896;53.500;10.020;2022-12-24T00:18:40;5.10;99.90
5743;DHT22;2896;53.500;10.020;2022-12-24T00:21:07;5.10;99.90
5743;DHT22;2896;53.500;10.020;2022-12-24T00:23:33;5.10;99.90
5743;DHT22;2896;53.500;10.020;2022-12-24T00:26:00;5.10;99.90
5743;DHT22;2896;53.500;10.020;2022-12-24T00:28:27;5.00;99.90
5743;DHT22;2896;53.500;10.020;2022-12-24T00:30:54;5.10;99.90
5743;DHT22;2896;53.500;10.020;2022-12-24T00:33:20;5.10;99.90
5743;DHT22;2896;53.500;10.020;2022-12-24T00:35:50;5.10;99.90
5743;DHT22;2896;53.500;10.020;2022-12-24T00:38:16;5.20;99.90
5743;DHT22;2896;53.500;10.020;2022-12-24T00:40:43;5.10;99.90
5743;DHT22;2896;53.500;10.020;2022-12-24T00:43:10;5.10;99.90
5743;DHT22;2896;53.500;10.020;2022-12-24T00:45:36;5.10;99.90
5743;DHT22;2896;53.500;10.020;2022-12-24T00:48:03;5.10;99.90
5743;DHT22;2896;53.500;10.020;2022-12-24T00:50:30;5.00;99.90
5743;DHT22;2896;53.500;10.020;2022-12-24T00:52:57;5.20;99.90
5743;DHT22;2896;53.500;10.020;2022-12-24T00:55:24;5.10;99.90
5743;DHT22;2896;53.500;10.020;2022-12-24T00:57:51;5.10;99.90
5743;DHT22;2896;53.500;10.020;2022-12-24T01:00:18;5.20;99.90
5743;DHT22;2896;53.500;10.020;2022-12-24T01:02:45;5.10;99.90
5743;DHT22;2896;53.500;10.020;2022-12-24T01:05:12;5.20;99.90
5743;DHT22;2896;53.500;10.020;2022-12-24T01:07:41;5.00;99.90
5743;DHT22;2896;53.500;10.020;2022-12-24T01:10:10;5.00;99.90
5743;DHT22;2896;53.500;10.020;2022-12-24T01:12:37;5.20;99.90
5743;DHT22;2896;53.500;10.020;2022-12-24T01:15:05;5.20;99.90
5743;DHT22;2896;53.500;10.020;2022-12-24T01:17:32;5.00;99.90
5743;DHT22;2896;53.500;10.020;2022-12-24T01:20:00;5.00;99.90
5743;DHT22;2896;53.500;10.020;2022-12-24T01:22:26;5.10;99.90
5743;DHT22;2896;53.500;10.020;2022-12-24T01:24:53;5.00;99.90
5743;DHT22;2896;53.500;10.020;2022-12-24T01:27:21;5.10;99.90
5743;DHT22;2896;53.500;10.020;2022-12-24T01:29:48;5.10;99.90
5743;DHT22;2896;53.500;10.020;2022-12-24T01:32:14;5.00;99.90
5743;DHT22;2896;53.500;10.020;2022-12-24T01:34:41;5.00;99.90
5743;DHT22;2896;53.500;10.020;2022-12-24T01:37:08;5.10;99.90
5743;DHT22;2896;53.500;10.020;2022-12-24T01:39:34;5.20;99.90
5743;DHT22;2896;53.500;10.020;2022-12-24T01:42:01;5.20;99.90
5743;DHT22;2896;53.500;10.020;2022-12-24T01:44:49;5.10;99.90
5743;DHT22;2896;53.500;10.020;2022-12-24T01:47:20;5.00;99.90
5743;DHT22;2896;53.500;10.020;2022-12-24T01:49:49;5.10;99.90
5743;DHT22;2896;53.500;10.020;2022-12-24T01:52:20;5.10;99.90
5743;DHT22;2896;53.500;10.020;2022-12-24T01:54:48;5.00;99.90
5743;DHT22;2896;53.500;10.020;2022-12-24T01:57:20;4.90;99.90
5743;DHT22;2896;53.500;10.020;2022-12-24T01:59:54;5.00;99.90
5743;DHT22;2896;53.500;10.020;2022-12-24T02:02:22;5.00;99.90
5743;DHT22;2896;53.500;10.020;2022-12-24T02:04:52;5.10;99.90
5743;DHT22;2896;53.500;10.020;2022-12-24T02:07:21;5.00;99.90
5743;DHT22;2896;53.500;10.020;2022-12-24T02:09:48;5.10;99.90
5743;DHT22;2896;53.500;10.020;2022-12-24T02:12:17;5.10;99.90
5743;DHT22;2896;53.500;10.020;2022-12-24T02:14:44;5.10;99.90
5743;DHT22;2896;53.500;10.020;2022-12-24T02:17:17;4.90;99.90
5743;DHT22;2896;53.500;10.020;2022-12-24T02:23:08;5.00;99.90
5743;DHT22;2896;53.500;10.020;2022-12-24T02:25:50;4.90;99.90
5743;DHT22;2896;53.500;10.020;2022-12-24T02:28:33;4.90;99.90
5743;DHT22;2896;53.500;10.020;2022-12-24T02:31:06;4.80;99.90
5743;DHT22;2896;53.500;10.020;2022-12-24T02:33:37;5.00;99.90
5743;DHT22;2896;53.500;10.020;2022-12-24T02:36:13;5.10;99.90
5743;DHT22;2896;53.500;10.020;2022-12-24T02:38:44;5.10;99.90
5743;DHT22;2896;53.500;10.020;2022-12-24T02:41:16;4.90;99.90
5743;DHT22;2896;53.500;10.020;2022-12-24T02:43:45;4.80;99.90
5743;DHT22;2896;53.500;10.020;2022-12-24T02:46:17;4.90;99.90
5743;DHT22;2896;53.500;10.020;2022-12-24T02:48:46;4.90;99.90
5743;DHT22;2896;53.500;10.020;2022-12-24T02:51:14;5.10;99.90
5743;DHT22;2896;53.500;10.020;2022-12-24T02:53:41;4.90;99.90
5743;DHT22;2896;53.500;10.020;2022-12-24T02:59:25;5.10;99.90
5743;DHT22;2896;53.500;10.020;2022-12-24T03:02:05;5.00;99.90
5743;DHT22;2896;53.500;10.020;2022-12-24T03:04:44;5.00;99.90
5743;DHT22;2896;53.500;10.020;2022-12-24T03:07:17;5.00;99.90
5743;DHT22;2896;53.500;10.020;2022-12-24T03:09:56;5.00;99.90
5743;DHT22;2896;53.500;10.020;2022-12-24T03:12:28;5.00;99.90
5743;DHT22;2896;53.500;10.020;2022-12-24T03:14:56;5.00;99.90
5743;DHT22;2896;53.500;10.020;2022-12-24T03:17:25;5.00;99.90
5743;DHT22;2896;53.500;10.020;2022-12-24T03:19:53;4.90;99.90
5743;DHT22;2896;53.500;10.020;2022-12-24T03:22:21;4.80;99.90
5743;DHT22;2896;53.500;10.020;2022-12-24T03:24:49;4.90;99.90
5743;DHT22;2896;53.500;10.020;2022-12-24T03:27:16;5.00;99.90
5743;DHT22;2896;53.500;10.020;2022-12-24T03:29:44;5.00;99.90
5743;DHT22;2896;53.500;10.020;2022-12-24T03:32:11;5.10;99.90
5743;DHT22;2896;53.500;10.020;2022-12-24T03:34:39;5.00;99.90
5743;DHT22;2896;53.500;10.020;2022-12-24T03:37:05;4.90;99.90
5743;DHT22;2896;53.500;10.020;2022-12-24T03:39:32;5.00;99.90
5743;DHT22;2896;53.500;10.020;2022-12-24T03:41:59;4.90;99.90
5743;DHT22;2896;53.500;10.020;2022-12-24T03:44:25;4.90;99.90
5743;DHT22;2896;53.500;10.020;2022-12-24T03:46:52;5.10;99.90
5743;DHT22;2896;53.500;10.020;2022-12-24T03:49:18;5.10;99.90
5743;DHT22;2896;53.500;10.020;2022-12-24T03:51:46;5.00;99.90
5743;DHT22;2896;53.500;10.020;2022-12-24T03:54:13;5.10;99.90
5743;DHT22;2896;53.500;10.020;2022-12-24T03:56:39;5.10;99.90
5743;DHT22;2896;53.500;10.020;2022-12-24T03:59:06;5.10;99.90
5743;DHT22;2896;53.500;10.020;2022-12-24T04:01:33;5.00;99.90
5743;DHT22;2896;53.500;10.020;2022-12-24T04:03:59;5.10;99.90
5743;DHT22;2896;53.500;10.020;2022-12-24T04:06:26;5.10;99.90
5743;DHT22;2896;53.500;10.020;2022-12-24T04:08:54;4.90;99.90
5743;DHT22;2896;53.500;10.020;2022-12-24T04:11:20;5.00;99.90
5743;DHT22;2896;53.500;10.020;2022-12-24T04:13:47;4.90;99.90
5743;DHT22;2896;53.500;10.020;2022-12-24T04:16:15;4.90;99.90
5743;DHT22;2896;53.500;10.020;2022-12-24T04:18:42;4.90;99.90
5743;DHT22;2896;53.500;10.020;2022-12-24T04:21:09;4.90;99.90
5743;DHT22;2896;53.500;10.020;2022-12-24T04:23:37;4.90;99.90
5743;DHT22;2896;53.500;10.020;2022-12-24T04:26:07;4.80;99.90
5743;DHT22;2896;53.500;10.020;2022-12-24T04:28:34;4.90;99.90
5743;DHT22;2896;53.500;10.020;2022-12-24T04:31:03;4.90;99.90
5743;DHT22;2896;53.500;10.020;2022-12-24T04:33:30;4.90;99.90
5743;DHT22;2896;53.500;10.020;2022-12-24T04:35:57;4.90;99.90
5743;DHT22;2896;53.500;10.020;2022-12-24T04:38:23;5.10;99.90
5743;DHT22;2896;53.500;10.020;2022-12-24T04:40:57;4.90;99.90
5743;DHT22;2896;53.500;10.020;2022-12-24T04:43:25;4.90;99.90
5743;DHT22;2896;53.500;10.020;2022-12-24T04:45:52;4.80;99.90
5743;DHT22;2896;53.500;10.020;2022-12-24T04:48:19;5.00;99.90
5743;DHT22;2896;53.500;10.020;2022-12-24T04:50:45;4.90;99.90
5743;DHT22;2896;53.500;10.020;2022-12-24T04:53:12;5.00;99.90
5743;DHT22;2896;53.500;10.020;2022-12-24T04:55:43;4.90;99.90
5743;DHT22;2896;53.500;10.020;2022-12-24T04:58:10;5.00;99.90
5743;DHT22;2896;53.500;10.020;2022-12-24T05:00:38;4.90;99.90
5743;DHT22;2896;53.500;10.020;2022-12-24T05:03:05;5.00;99.90
5743;DHT22;2896;53.500;10.020;2022-12-24T05:05:32;4.80;99.90
5743;DHT22;2896;53.500;10.020;2022-12-24T05:07:59;4.90;99.90
5743;DHT22;2896;53.500;10.020;2022-12-24T05:10:25;5.00;99.90
5743;DHT22;2896;53.500;10.020;2022-12-24T05:12:52;4.80;99.90
5743;DHT22;2896;53.500;10.020;2022-12-24T05:15:19;5.00;99.90
5743;DHT22;2896;53.500;10.020;2022-12-24T05:17:47;4.90;99.90
5743;DHT22;2896;53.500;10.020;2022-12-24T05:20:14;4.90;99.90
5743;DHT22;2896;53.500;10.020;2022-12-24T05:22:41;4.90;99.90
5743;DHT22;2896;53.500;10.020;2022-12-24T05:25:26;4.80;99.90
5743;DHT22;2896;53.500;10.020;2022-12-24T05:28:11;4.80;99.90
5743;DHT22;2896;53.500;10.020;2022-12-24T05:30:37;4.90;99.90
5743;DHT22;2896;53.500;10.020;2022-12-24T05:33:05;4.90;99.90
5743;DHT22;2896;53.500;10.020;2022-12-24T05:35:32;4.90;99.90
5743;DHT22;2896;53.500;10.020;2022-12-24T05:37:58;5.00;99.90
5743;DHT22;2896;53.500;10.020;2022-12-24T05:40:25;4.90;99.90
5743;DHT22;2896;53.500;10.020;2022-12-24T05:42:51;5.00;99.90
5743;DHT22;2896;53.500;10.020;2022-12-24T05:45:18;4.90;99.90
5743;DHT22;2896;53.500;10.020;2022-12-24T05:47:45;4.80;99.90
5743;DHT22;2896;53.500;10.020;2022-12-24T05:50:13;4.80;99.90
5743;DHT22;2896;53.500;10.020;2022-12-24T05:52:39;4.90;99.90
5743;DHT22;2896;53.500;10.020;2022-12-24T05:55:07;4.80;99.90
5743;DHT22;2896;53.500;10.020;2022-12-24T05:57:34;4.90;99.90
5743;DHT22;2896;53.500;10.020;2022-12-24T06:00:01;4.90;99.90
5743;DHT22;2896;53.500;10.020;2022-12-24T06:02:27;5.20;99.90
5743;DHT22;2896;53.500;10.020;2022-12-24T06:04:54;5.10;99.90
5743;DHT22;2896;53.500;10.020;2022-12-24T06:07:22;4.90;99.90
5743;DHT22;2896;53.500;10.020;2022-12-24T06:09:48;4.90;99.90
5743;DHT22;2896;53.500;10.020;2022-12-24T06:12:15;4.90;99.90
5743;DHT22;2896;53.500;10.020;2022-12-24T06:14:42;5.10;99.90
5743;DHT22;2896;53.500;10.020;2022-12-24T06:17:08;5.00;99.90
5743;DHT22;2896;53.500;10.020;2022-12-24T06:19:35;4.90;99.90
5743;DHT22;2896;53.500;10.020;2022-12-24T06:22:02;4.90;99.90
5743;DHT22;2896;53.500;10.020;2022-12-24T06:24:29;5.10;99.90
5743;DHT22;2896;53.500;10.020;2022-12-24T06:26:56;4.90;99.90
5743;DHT22;2896;53.500;10.020;2022-12-24T06:29:23;4.90;99.90
5743;DHT22;2896;53.500;10.020;2022-12-24T06:31:49;4.90;99.90
5743;DHT22;2896;53.500;10.020;2022-12-24T06:34:16;5.00;99.90
5743;DHT22;2896;53.500;10.020;2022-12-24T06:36:43;4.90;99.90
5743;DHT22;2896;53.500;10.020;2022-12-24T06:39:09;4.50;99.90
5743;DHT22;2896;53.500;10.020;2022-12-24T06:41:37;5.00;99.90
5743;DHT22;2896;53.500;10.020;2022-12-24T06:44:04;5.00;99.90
5743;DHT22;2896;53.500;10.020;2022-12-24T06:46:30;4.90;99.90
5743;DHT22;2896;53.500;10.020;2022-12-24T06:48:57;4.90;99.90
5743;DHT22;2896;53.500;10.020;2022-12-24T06:51:24;5.00;99.90
5743;DHT22;2896;53.500;10.020;2022-12-24T06:53:51;4.80;99.90
5743;DHT22;2896;53.500;10.020;2022-12-24T06:56:19;5.00;99.90
5743;DHT22;2896;53.500;10.020;2022-12-24T06:58:47;4.90;99.90
5743;DHT22;2896;53.500;10.020;2022-12-24T07:01:15;4.90;99.90
5743;DHT22;2896;53.500;10.020;2022-12-24T07:03:43;4.90;99.90
5743;DHT22;2896;53.500;10.020;2022-12-24T07:06:14;5.00;99.90
5743;DHT22;2896;53.500;10.020;2022-12-24T07:08:42;4.90;99.90
5743;DHT22;2896;53.500;10.020;2022-12-24T07:11:09;4.90;99.90
5743;DHT22;2896;53.500;10.020;2022-12-24T07:13:35;5.00;99.90
5743;DHT22;2896;53.500;10.020;2022-12-24T07:16:04;4.90;99.90
5743;DHT22;2896;53.500;10.020;2022-12-24T07:18:31;4.90;99.90
5743;DHT22;2896;53.500;10.020;2022-12-24T07:20:58;4.90;99.90
5743;DHT22;2896;53.500;10.020;2022-12-24T07:23:25;5.00;99.90
5743;DHT22;2896;53.500;10.020;2022-12-24T07:25:52;4.80;99.90
5743;DHT22;2896;53.500;10.020;2022-12-24T07:28:18;5.00;99.90
5743;DHT22;2896;53.500;10.020;2022-12-24T07:30:47;4.80;99.90
5743;DHT22;2896;53.500;10.020;2022-12-24T07:33:15;4.80;99.90
5743;DHT22;2896;53.500;10.020;2022-12-24T07:35:41;4.90;99.90
5743;DHT22;2896;53.500;10.020;2022-12-24T07:38:08;3.70;99.90
5743;DHT22;2896;53.500;10.020;2022-12-24T07:40:35;4.80;99.90
5743;DHT22;2896;53.500;10.020;2022-12-24T07:43:02;4.90;99.90
5743;DHT22;2896;53.500;10.020;2022-12-24T07:45:28;4.90;99.90
5743;DHT22;2896;53.500;10.020;2022-12-24T07:47:55;4.80;99.90
5743;DHT22;2896;53.500;10.020;2022-12-24T07:50:23;4.80;99.90
5743;DHT22;2896;53.500;10.020;2022-12-24T07:52:49;4.90;99.90
5743;DHT22;2896;53.500;10.020;2022-12-24T07:55:16;4.90;99.90
5743;DHT22;2896;53.500;10.020;2022-12-24T07:57:43;4.80;99.90
5743;DHT22;2896;53.500;10.020;2022-12-24T08:00:10;4.80;99.90
5743;DHT22;2896;53.500;10.020;2022-12-24T08:02:37;4.80;99.90
5743;DHT22;2896;53.500;10.020;2022-12-24T08:05:05;4.90;99.90
5743;DHT22;2896;53.500;10.020;2022-12-24T08:07:33;4.70;99.90
5743;DHT22;2896;53.500;10.020;2022-12-24T08:10:00;4.90;99.90
5743;DHT22;2896;53.500;10.020;2022-12-24T08:12:27;4.70;99.90
5743;DHT22;2896;53.500;10.020;2022-12-24T08:14:53;4.90;99.90
5743;DHT22;2896;53.500;10.020;2022-12-24T08:17:20;4.80;99.90
5743;DHT22;2896;53.500;10.020;2022-12-24T08:19:46;4.90;99.90
5743;DHT22;2896;53.500;10.020;2022-12-24T08:22:14;4.90;99.90
5743;DHT22;2896;53.500;10.020;2022-12-24T08:24:42;4.90;99.90
5743;DHT22;2896;53.500;10.020;2022-12-24T08:27:09;5.00;99.90
5743;DHT22;2896;53.500;10.020;2022-12-24T08:29:35;5.10;99.90
5743;DHT22;2896;53.500;10.020;2022-12-24T08:32:02;5.00;99.90
5743;DHT22;2896;53.500;10.020;2022-12-24T08:34:29;5.00;99.90
5743;DHT22;2896;53.500;10.020;2022-12-24T08:36:56;4.90;99.90
5743;DHT22;2896;53.500;10.020;2022-12-24T08:39:23;4.90;99.90
5743;DHT22;2896;53.500;10.020;2022-12-24T08:41:51;5.00;99.90
5743;DHT22;2896;53.500;10.020;2022-12-24T08:44:18;4.90;99.90
5743;DHT22;2896;53.500;10.020;2022-12-24T08:46:44;5.10;99.90
5743;DHT22;2896;53.500;10.020;2022-12-24T08:49:11;5.00;99.90
5743;DHT22;2896;53.500;10.020;2022-12-24T08:51:37;5.10;99.90
5743;DHT22;2896;53.500;10.020;2022-12-24T08:54:04;5.20;99.90
5743;DHT22;2896;53.500;10.020;2022-12-24T08:56:31;5.00;99.90
5743;DHT22;2896;53.500;10.020;2022-12-24T08:59:00;4.90;99.90
5743;DHT22;2896;53.500;10.020;2022-12-24T09:01:27;5.00;99.90
5743;DHT22;2896;53.500;10.020;2022-12-24T09:03:53;5.00;99.90
5743;DHT22;2896;53.500;10.020;2022-12-24T09:06:20;4.90;99.90
5743;DHT22;2896;53.500;10.020;2022-12-24T09:08:47;5.00;99.90
5743;DHT22;2896;53.500;10.020;2022-12-24T09:11:16;5.10;99.90
5743;DHT22;2896;53.500;10.020;2022-12-24T09:13:43;5.10;99.90
5743;DHT22;2896;53.500;10.020;2022-12-24T09:16:11;5.10;99.90
5743;DHT22;2896;53.500;10.020;2022-12-24T09:18:38;5.10;99.90
5743;DHT22;2896;53.500;10.020;2022-12-24T09:21:06;5.10;99.90
5743;DHT22;2896;53.500;10.020;2022-12-24T09:23:34;5.10;99.90
5743;DHT22;2896;53.500;10.020;2022-12-24T09:26:04;5.10;99.90
5743;DHT22;2896;53.500;10.020;2022-12-24T09:28:31;5.30;99.90
5743;DHT22;2896;53.500;10.020;2022-12-24T09:30:59;5.20;99.90
5743;DHT22;2896;53.500;10.020;2022-12-24T09:33:30;5.20;99.90
5743;DHT22;2896;53.500;10.020;2022-12-24T09:35:57;5.10;99.90
5743;DHT22;2896;53.500;10.020;2022-12-24T09:38:24;5.20;99.90
5743;DHT22;2896;53.500;10.020;2022-12-24T09:40:52;5.40;99.90
5743;DHT22;2896;53.500;10.020;2022-12-24T09:43:21;6.80;99.90
5743;DHT22;2896;53.500;10.020;2022-12-24T09:45:54;5.20;99.90
5743;DHT22;2896;53.500;10.020;2022-12-24T09:48:29;5.20;99.90
5743;DHT22;2896;53.500;10.020;2022-12-24T09:50:59;5.20;99.90
5743;DHT22;2896;53.500;10.020;2022-12-24T09:53:35;5.40;99.90
5743;DHT22;2896;53.500;10.020;2022-12-24T09:56:05;5.30;99.90
5743;DHT22;2896;53.500;10.020;2022-12-24T09:58:40;5.30;99.90
5743;DHT22;2896;53.500;10.020;2022-12-24T10:01:11;5.40;99.90
5743;DHT22;2896;53.500;10.020;2022-12-24T10:03:40;5.30;99.90
5743;DHT22;2896;53.500;10.020;2022-12-24T10:06:11;5.40;99.90
5743;DHT22;2896;53.500;10.020;2022-12-24T10:08:49;5.50;99.90
5743;DHT22;2896;53.500;10.020;2022-12-24T10:11:23;5.50;99.90
5743;DHT22;2896;53.500;10.020;2022-12-24T10:14:07;5.50;99.90
5743;DHT22;2896;53.500;10.020;2022-12-24T10:16:45;5.50;99.90
5743;DHT22;2896;53.500;10.020;2022-12-24T10:19:20;5.50;99.90
5743;DHT22;2896;53.500;10.020;2022-12-24T10:21:59;5.60;99.90
5743;DHT22;2896;53.500;10.020;2022-12-24T10:24:33;5.60;99.90
5743;DHT22;2896;53.500;10.020;2022-12-24T10:27:06;5.70;99.90
5743;DHT22;2896;53.500;10.020;2022-12-24T10:29:41;5.60;99.90
5743;DHT22;2896;53.500;10.020;2022-12-24T10:32:16;5.60;99.90
5743;DHT22;2896;53.500;10.020;2022-12-24T10:34:54;5.60;99.90
5743;DHT22;2896;53.500;10.020;2022-12-24T10:37:24;5.70;99.90
5743;DHT22;2896;53.500;10.020;2022-12-24T10:39:53;5.70;99.90
5743;DHT22;2896;53.500;10.020;2022-12-24T10:42:20;5.70;99.90
5743;DHT22;2896;53.500;10.020;2022-12-24T10:44:50;5.80;99.90
5743;DHT22;2896;53.500;10.020;2022-12-24T10:47:21;5.70;99.90
5743;DHT22;2896;53.500;10.020;2022-12-24T10:49:56;5.80;99.90
5743;DHT22;2896;53.500;10.020;2022-12-24T10:52:28;5.80;99.90
5743;DHT22;2896;53.500;10.020;2022-12-24T10:55:05;5.70;99.90
5743;DHT22;2896;53.500;10.020;2022-12-24T10:57:33;5.80;99.90
5743;DHT22;2896;53.500;10.020;2022-12-24T11:00:00;5.70;99.90
5743;DHT22;2896;53.500;10.020;2022-12-24T11:02:28;5.70;99.90
5743;DHT22;2896;53.500;10.020;2022-12-24T11:04:57;5.70;99.90
5743;DHT22;2896;53.500;10.020;2022-12-24T11:07:26;5.80;99.90
5743;DHT22;2896;53.500;10.020;2022-12-24T11:09:55;5.80;99.90
5743;DHT22;2896;53.500;10.020;2022-12-24T11:12:24;5.80;99.90
5743;DHT22;2896;53.500;10.020;2022-12-24T11:14:59;5.70;99.90
5743;DHT22;2896;53.500;10.020;2022-12-24T11:17:27;5.80;99.90
5743;DHT22;2896;53.500;10.020;2022-12-24T11:19:53;6.00;99.90
5743;DHT22;2896;53.500;10.020;2022-12-24T11:22:23;6.00;99.90
5743;DHT22;2896;53.500;10.020;2022-12-24T11:24:58;6.00;99.90
5743;DHT22;2896;53.500;10.020;2022-12-24T11:27:38;6.00;99.90
5743;DHT22;2896;53.500;10.020;2022-12-24T11:30:24;6.00;99.90
5743;DHT22;2896;53.500;10.020;2022-12-24T11:33:18;6.10;99.90
5743;DHT22;2896;53.500;10.020;2022-12-24T11:35:47;6.10;99.90
5743;DHT22;2896;53.500;10.020;2022-12-24T11:38:20;5.90;99.90
5743;DHT22;2896;53.500;10.020;2022-12-24T11:40:49;5.90;99.90
5743;DHT22;2896;53.500;10.020;2022-12-24T11:43:17;5.80;99.90
5743;DHT22;2896;53.500;10.020;2022-12-24T11:45:49;5.90;99.90
5743;DHT22;2896;53.500;10.020;2022-12-24T11:48:28;6.00;99.90
5743;DHT22;2896;53.500;10.020;2022-12-24T11:50:56;6.30;99.90
5743;DHT22;2896;53.500;10.020;2022-12-24T11:53:29;6.30;99.90
5743;DHT22;2896;53.500;10.020;2022-12-24T11:56:00;6.50;99.90
5743;DHT22;2896;53.500;10.020;2022-12-24T11:58:32;6.70;99.90
5743;DHT22;2896;53.500;10.020;2022-12-24T12:01:13;6.70;99.90
5743;DHT22;2896;53.500;10.020;2022-12-24T12:03:42;6.60;99.90
5743;DHT22;2896;53.500;10.020;2022-12-24T12:06:25;6.80;99.90
5743;DHT22;2896;53.500;10.020;2022-12-24T12:08:56;6.80;99.90
5743;DHT22;2896;53.500;10.020;2022-12-24T12:11:26;7.00;99.90
5743;DHT22;2896;53.500;10.020;2022-12-24T12:13:57;7.30;99.90
5743;DHT22;2896;53.500;10.020;2022-12-24T12:16:28;7.40;99.90
5743;DHT22;2896;53.500;10.020;2022-12-24T12:19:16;7.50;99.90
5743;DHT22;2896;53.500;10.020;2022-12-24T12:21:46;9.80;99.90
5743;DHT22;2896;53.500;10.020;2022-12-24T12:24:19;7.50;99.90
5743;DHT22;2896;53.500;10.020;2022-12-24T12:26:55;7.50;99.90
5743;DHT22;2896;53.500;10.020;2022-12-24T12:29:25;7.60;99.90
5743;DHT22;2896;53.500;10.020;2022-12-24T12:31:56;7.70;99.90
5743;DHT22;2896;53.500;10.020;2022-12-24T12:34:30;7.80;99.90
5743;DHT22;2896;53.500;10.020;2022-12-24T12:37:01;7.80;99.90
5743;DHT22;2896;53.500;10.020;2022-12-24T12:39:33;7.80;99.90
5743;DHT22;2896;53.500;10.020;2022-12-24T12:42:08;7.90;99.90
5743;DHT22;2896;53.500;10.020;2022-12-24T12:45:02;7.90;99.90
5743;DHT22;2896;53.500;10.020;2022-12-24T12:47:55;8.00;99.90
5743;DHT22;2896;53.500;10.020;2022-12-24T12:50:31;7.90;99.90
5743;DHT22;2896;53.500;10.020;2022-12-24T12:53:11;7.50;99.90
5743;DHT22;2896;53.500;10.020;2022-12-24T12:55:49;7.60;99.90
5743;DHT22;2896;53.500;10.020;2022-12-24T12:58:21;7.70;99.90
5743;DHT22;2896;53.500;10.020;2022-12-24T13:00:53;7.70;99.90
5743;DHT22;2896;53.500;10.020;2022-12-24T13:09:59;7.90;99.90
5743;DHT22;2896;53.500;10.020;2022-12-24T13:12:47;7.90;99.90
5743;DHT22;2896;53.500;10.020;2022-12-24T13:15:53;7.90;99.90
5743;DHT22;2896;53.500;10.020;2022-12-24T13:18:50;8.10;99.90
5743;DHT22;2896;53.500;10.020;2022-12-24T13:21:21;8.20;99.90
5743;DHT22;2896;53.500;10.020;2022-12-24T13:23:49;8.40;99.90
5743;DHT22;2896;53.500;10.020;2022-12-24T13:26:16;8.40;99.90
5743;DHT22;2896;53.500;10.020;2022-12-24T13:28:45;8.40;99.90
5743;DHT22;2896;53.500;10.020;2022-12-24T13:31:23;8.50;99.90
5743;DHT22;2896;53.500;10.020;2022-12-24T13:33:53;8.50;99.90
5743;DHT22;2896;53.500;10.020;2022-12-24T13:36:20;8.40;99.90
5743;DHT22;2896;53.500;10.020;2022-12-24T13:38:48;8.30;99.90
5743;DHT22;2896;53.500;10.020;2022-12-24T13:44:21;8.10;99.90
5743;DHT22;2896;53.500;10.020;2022-12-24T13:46:54;8.00;99.90
5743;DHT22;2896;53.500;10.020;2022-12-24T13:49:30;7.90;99.90
5743;DHT22;2896;53.500;10.020;2022-12-24T13:52:06;7.90;99.90
5743;DHT22;2896;53.500;10.020;2022-12-24T13:54:35;7.90;99.90
5743;DHT22;2896;53.500;10.020;2022-12-24T13:57:28;7.80;99.90
5743;DHT22;2896;53.500;10.020;2022-12-24T13:59:58;7.80;99.90
5743;DHT22;2896;53.500;10.020;2022-12-24T14:02:28;7.70;99.90
5743;DHT22;2896;53.500;10.020;2022-12-24T14:05:01;7.70;99.90
5743;DHT22;2896;53.500;10.020;2022-12-24T14:07:29;7.60;99.90
5743;DHT22;2896;53.500;10.020;2022-12-24T14:09:56;7.60;99.90
5743;DHT22;2896;53.500;10.020;2022-12-24T14:12:44;7.60;99.90
5743;DHT22;2896;53.500;10.020;2022-12-24T14:18:33;7.80;99.90
5743;DHT22;2896;53.500;10.020;2022-12-24T14:21:00;7.60;99.90
5743;DHT22;2896;53.500;10.020;2022-12-24T14:23:34;7.60;99.90
5743;DHT22;2896;53.500;10.020;2022-12-24T14:26:03;7.70;99.90
5743;DHT22;2896;53.500;10.020;2022-12-24T14:28:39;7.80;99.90
5743;DHT22;2896;53.500;10.020;2022-12-24T14:31:14;7.70;99.90
5743;DHT22;2896;53.500;10.020;2022-12-24T14:33:42;7.70;99.90
5743;DHT22;2896;53.500;10.020;2022-12-24T14:36:09;7.70;99.90
5743;DHT22;2896;53.500;10.020;2022-12-24T14:38:39;7.60;99.90
5743;DHT22;2896;53.500;10.020;2022-12-24T14:41:22;7.60;99.90
5743;DHT22;2896;53.500;10.020;2022-12-24T14:43:57;7.60;99.90
5743;DHT22;2896;53.500;10.020;2022-12-24T14:46:30;7.40;99.90
5743;DHT22;2896;53.500;10.020;2022-12-24T14:49:04;7.80;99.90
5743;DHT22;2896;53.500;10.020;2022-12-24T14:51:35;7.40;99.90
5743;DHT22;2896;53.500;10.020;2022-12-24T14:54:26;7.50;99.90
5743;DHT22;2896;53.500;10.020;2022-12-24T14:57:18;7.40;99.90
5743;DHT22;2896;53.500;10.020;2022-12-24T14:59:47;7.40;99.90
5743;DHT22;2896;53.500;10.020;2022-12-24T15:02:42;7.50;99.90
5743;DHT22;2896;53.500;10.020;2022-12-24T15:05:13;7.30;99.90
5743;DHT22;2896;53.500;10.020;2022-12-24T15:07:43;7.40;99.90
5743;DHT22;2896;53.500;10.020;2022-12-24T15:10:25;7.30;99.90
5743;DHT22;2896;53.500;10.020;2022-12-24T15:12:53;7.30;99.90
5743;DHT22;2896;53.500;10.020;2022-12-24T15:15:22;7.20;99.90
5743;DHT22;2896;53.500;10.020;2022-12-24T15:17:49;7.30;99.90
5743;DHT22;2896;53.500;10.020;2022-12-24T15:20:22;7.20;99.90
5743;DHT22;2896;53.500;10.020;2022-12-24T15:22:51;7.30;99.90
5743;DHT22;2896;53.500;10.020;2022-12-24T15:25:20;7.30;99.90
5743;DHT22;2896;53.500;10.020;2022-12-24T15:27:48;7.30;99.90
5743;DHT22;2896;53.500;10.020;2022-12-24T15:30:17;7.20;99.90
5743;DHT22;2896;53.500;10.020;2022-12-24T15:32:44;7.20;99.90
5743;DHT22;2896;53.500;10.020;2022-12-24T15:35:43;7.20;99.90
5743;DHT22;2896;53.500;10.020;2022-12-24T15:38:23;7.20;99.90
5743;DHT22;2896;53.500;10.020;2022-12-24T15:40:51;7.10;99.90
5743;DHT22;2896;53.500;10.020;2022-12-24T15:43:18;7.10;99.90
5743;DHT22;2896;53.500;10.020;2022-12-24T15:45:45;7.00;99.90
5743;DHT22;2896;53.500;10.020;2022-12-24T15:48:17;7.20;99.90
5743;DHT22;2896;53.500;10.020;2022-12-24T15:50:51;7.10;99.90
5743;DHT22;2896;53.500;10.020;2022-12-24T15:53:22;7.00;99.90
5743;DHT22;2896;53.500;10.020;2022-12-24T15:56:05;7.00;99.90
5743;DHT22;2896;53.500;10.020;2022-12-24T15:58:34;7.10;99.90
5743;DHT22;2896;53.500;10.020;2022-12-24T16:03:57;7.30;99.90
5743;DHT22;2896;53.500;10.020;2022-12-24T16:06:27;7.30;99.90
5743;DHT22;2896;53.500;10.020;2022-12-24T16:08:54;7.40;99.90
5743;DHT22;2896;53.500;10.020;2022-12-24T16:11:23;7.50;99.90
5743;DHT22;2896;53.500;10.020;2022-12-24T16:14:03;7.80;99.90
5743;DHT22;2896;53.500;10.020;2022-12-24T16:16:34;7.80;99.90
5743;DHT22;2896;53.500;10.020;2022-12-24T16:19:02;8.00;99.90
5743;DHT22;2896;53.500;10.020;2022-12-24T16:21:35;7.90;99.90
5743;DHT22;2896;53.500;10.020;2022-12-24T16:24:05;7.90;99.90
5743;DHT22;2896;53.500;10.020;2022-12-24T16:26:32;7.90;99.90
5743;DHT22;2896;53.500;10.020;2022-12-24T16:28:59;8.00;99.90
5743;DHT22;2896;53.500;10.020;2022-12-24T16:31:31;8.10;99.90
5743;DHT22;2896;53.500;10.020;2022-12-24T16:33:59;8.10;99.90
5743;DHT22;2896;53.500;10.020;2022-12-24T16:36:27;8.10;99.90
5743;DHT22;2896;53.500;10.020;2022-12-24T16:38:55;8.30;99.90
5743;DHT22;2896;53.500;10.020;2022-12-24T16:41:40;8.30;99.90
5743;DHT22;2896;53.500;10.020;2022-12-24T16:44:24;8.30;99.90